createdAt,value
2023-05-17T00:00:54.507Z,97074.66
2023-05-17T00:03:21.145Z,97077.56
2023-05-17T00:05:47.794Z,97073.78
2023-05-17T00:08:14.356Z,97072.66
2023-05-17T00:10:40.886Z,97072.53
2023-05-17T00:13:07.442Z,97077.22
2023-05-17T00:15:36.226Z,97075.31
2023-05-17T00:18:02.770Z,97075.88
2023-05-17T00:20:29.503Z,97073.22
2023-05-17T00:22:56.190Z,97082.91
2023-05-17T00:25:22.783Z,97085.22
2023-05-17T00:27:49.264Z,97084.09
2023-05-17T00:30:15.881Z,97088.91
2023-05-17T00:32:42.407Z,97089.81
2023-05-17T00:35:09.346Z,97094.22
2023-05-17T00:37:35.943Z,97093.38
2023-05-17T00:40:03.656Z,97085.63
2023-05-17T00:42:30.584Z,97096.31
2023-05-17T00:44:57.325Z,97090.38
2023-05-17T00:47:24.136Z,97094.44
2023-05-17T00:49:51.585Z,97081.03
2023-05-17T00:52:18.208Z,97095.34
2023-05-17T00:54:46.592Z,97093.75
2023-05-17T00:57:13.337Z,97091.28
2023-05-17T00:59:43.773Z,97078.34
2023-05-17T01:02:11.750Z,97074.78
2023-05-17T01:04:38.827Z,97077.69
2023-05-17T01:07:05.425Z,97077.84
2023-05-17T01:09:32.086Z,97075.38
2023-05-17T01:12:36.195Z,97087.59
2023-05-17T01:15:14.821Z,97085.97
2023-05-17T01:17:52.219Z,97089.78
2023-05-17T01:20:21.657Z,97089.03
2023-05-17T01:23:10.191Z,97089.56
2023-05-17T01:26:00.621Z,97107.41
2023-05-17T01:28:28.266Z,97105.00
2023-05-17T01:30:57.539Z,97104.72
2023-05-17T01:33:24.382Z,97098.81
2023-05-17T01:35:51.320Z,97105.53
2023-05-17T01:38:17.857Z,97112.47
2023-05-17T01:40:52.332Z,97112.78
2023-05-17T01:43:47.797Z,97120.25
2023-05-17T01:46:32.147Z,97103.63
2023-05-17T01:49:18.212Z,97125.72
2023-05-17T01:51:51.846Z,97117.78
2023-05-17T01:54:23.106Z,97122.94
2023-05-17T01:56:57.608Z,97132.00
2023-05-17T01:59:25.552Z,97126.09
2023-05-17T02:02:06.352Z,97122.56
2023-05-17T02:04:33.274Z,97131.22
2023-05-17T02:06:59.889Z,97133.53
2023-05-17T02:09:26.398Z,97133.03
2023-05-17T02:11:52.971Z,97132.75
2023-05-17T02:14:19.519Z,97142.22
2023-05-17T02:16:46.138Z,97139.34
2023-05-17T02:19:13.456Z,97149.00
2023-05-17T02:21:39.984Z,97147.91
2023-05-17T02:24:06.936Z,97144.75
2023-05-17T02:26:33.839Z,97136.22
2023-05-17T02:29:00.433Z,97137.59
2023-05-17T02:31:27.024Z,97139.25
2023-05-17T02:33:54.546Z,97141.63
2023-05-17T02:36:21.824Z,97139.69
2023-05-17T02:38:48.396Z,97124.97
2023-05-17T02:41:14.867Z,97125.81
2023-05-17T02:43:41.944Z,97129.84
2023-05-17T02:46:08.457Z,97139.16
2023-05-17T02:48:35.035Z,97129.66
2023-05-17T02:51:01.587Z,97136.41
2023-05-17T02:53:28.092Z,97139.16
2023-05-17T02:55:57.998Z,97148.91
2023-05-17T02:58:25.458Z,97142.72
2023-05-17T03:00:52.199Z,97148.50
2023-05-17T03:03:18.914Z,97147.69
2023-05-17T03:05:45.613Z,97146.59
2023-05-17T03:08:12.119Z,97151.00
2023-05-17T03:10:38.675Z,97155.41
2023-05-17T03:13:06.185Z,97156.47
2023-05-17T03:15:32.720Z,97150.31
2023-05-17T03:17:59.273Z,97157.56
2023-05-17T03:20:26.033Z,97156.22
2023-05-17T03:22:52.804Z,97165.28
2023-05-17T03:25:20.956Z,97163.88
2023-05-17T03:27:47.494Z,97167.47
2023-05-17T03:30:14.256Z,97169.38
2023-05-17T03:32:41.142Z,97184.34
2023-05-17T03:35:08.399Z,97176.13
2023-05-17T03:37:35.079Z,97180.38
2023-05-17T03:40:01.595Z,97190.09
2023-05-17T03:42:28.109Z,97178.03
2023-05-17T03:44:54.665Z,97191.63
2023-05-17T03:47:24.002Z,97199.84
2023-05-17T03:49:50.762Z,97200.22
2023-05-17T03:52:17.324Z,97198.34
2023-05-17T03:54:44.221Z,97203.63
2023-05-17T03:57:11.443Z,97212.41
2023-05-17T03:59:38.017Z,97208.72
2023-05-17T04:02:05.215Z,97219.16
2023-05-17T04:04:31.750Z,97217.22
2023-05-17T04:06:58.534Z,97221.88
2023-05-17T04:09:25.613Z,97227.66
2023-05-17T04:11:52.164Z,97230.00
2023-05-17T04:14:19.242Z,97212.84
2023-05-17T04:16:46.044Z,97232.59
2023-05-17T04:19:12.911Z,97224.91
2023-05-17T04:21:39.986Z,97221.88
2023-05-17T04:24:06.840Z,97227.34
2023-05-17T04:26:33.413Z,97236.00
2023-05-17T04:29:00.037Z,97232.25
2023-05-17T04:31:26.565Z,97239.25
2023-05-17T04:33:53.170Z,97243.91
2023-05-17T04:36:19.720Z,97240.47
2023-05-17T04:38:46.515Z,97256.81
2023-05-17T04:41:13.093Z,97247.22
2023-05-17T04:43:39.870Z,97253.03
2023-05-17T04:46:07.176Z,97246.84
2023-05-17T04:48:33.914Z,97244.78
2023-05-17T04:51:02.378Z,97245.38
2023-05-17T04:53:28.972Z,97251.66
2023-05-17T04:55:55.542Z,97265.00
2023-05-17T04:58:24.327Z,97263.63
2023-05-17T05:00:52.164Z,97259.72
2023-05-17T05:03:19.054Z,97264.06
2023-05-17T05:05:45.775Z,97259.66
2023-05-17T05:08:12.358Z,97269.38
2023-05-17T05:10:38.890Z,97269.59
2023-05-17T05:13:06.045Z,97272.25
2023-05-17T05:15:32.925Z,97262.06
2023-05-17T05:17:59.493Z,97269.41
2023-05-17T05:20:27.917Z,97256.81
2023-05-17T05:22:54.913Z,97261.53
2023-05-17T05:25:21.584Z,97271.56
2023-05-17T05:27:48.129Z,97268.56
2023-05-17T05:30:21.993Z,97273.28
2023-05-17T05:32:52.169Z,97274.50
2023-05-17T05:35:19.214Z,97270.81
2023-05-17T05:37:46.082Z,97265.06
2023-05-17T05:40:13.207Z,97279.31
2023-05-17T05:42:39.751Z,97257.88
2023-05-17T05:45:07.093Z,97275.44
2023-05-17T05:47:33.641Z,97278.19
2023-05-17T05:50:01.265Z,97277.03
2023-05-17T05:52:27.845Z,97280.44
2023-05-17T05:54:55.384Z,97288.88
2023-05-17T05:57:21.935Z,97289.72
2023-05-17T05:59:48.508Z,97290.25
2023-05-17T06:02:15.063Z,97289.22
2023-05-17T06:04:45.634Z,97293.34
2023-05-17T06:07:13.708Z,97296.41
2023-05-17T06:09:40.447Z,97292.63
2023-05-17T06:12:07.091Z,97300.16
2023-05-17T06:14:33.798Z,97303.53
2023-05-17T06:17:00.412Z,97303.13
2023-05-17T06:19:27.016Z,97302.63
2023-05-17T06:21:53.678Z,97294.59
2023-05-17T06:24:20.272Z,97310.44
2023-05-17T06:26:49.627Z,97308.66
2023-05-17T06:29:16.181Z,97300.66
2023-05-17T06:31:42.681Z,97313.28
2023-05-17T06:34:09.266Z,97310.34
2023-05-17T06:36:36.661Z,97318.53
2023-05-17T06:39:04.959Z,97321.34
2023-05-17T06:41:31.530Z,97316.75
2023-05-17T06:43:58.043Z,97322.66
2023-05-17T06:46:24.579Z,97309.50
2023-05-17T06:48:51.453Z,97325.78
2023-05-17T06:51:18.301Z,97321.66
2023-05-17T06:53:44.896Z,97328.53
2023-05-17T06:56:11.467Z,97317.31
2023-05-17T06:58:37.981Z,97317.16
2023-05-17T07:01:04.767Z,97311.16
2023-05-17T07:03:31.391Z,97310.75
2023-05-17T07:05:58.212Z,97322.38
2023-05-17T07:08:24.762Z,97322.13
2023-05-17T07:10:52.513Z,97318.47
2023-05-17T07:13:19.211Z,97324.38
2023-05-17T07:15:46.472Z,97325.81
2023-05-17T07:18:13.174Z,97331.19
2023-05-17T07:20:40.025Z,97336.34
2023-05-17T07:23:06.519Z,97338.53
2023-05-17T07:25:33.283Z,97334.72
2023-05-17T07:27:59.903Z,97329.59
2023-05-17T07:30:27.791Z,97339.13
2023-05-17T07:32:54.478Z,97330.66
2023-05-17T07:35:21.951Z,97330.47
2023-05-17T07:37:50.876Z,97353.00
2023-05-17T07:40:18.520Z,97343.88
2023-05-17T07:42:45.002Z,97346.66
2023-05-17T07:45:11.683Z,97351.78
2023-05-17T07:47:38.368Z,97351.53
2023-05-17T07:50:06.030Z,97357.66
2023-05-17T07:52:32.622Z,97356.22
2023-05-17T07:54:59.206Z,97355.50
2023-05-17T07:57:27.302Z,97359.44
2023-05-17T07:59:53.805Z,97358.44
2023-05-17T08:02:20.580Z,97365.03
2023-05-17T08:04:53.009Z,97350.53
2023-05-17T08:07:19.598Z,97358.75
2023-05-17T08:09:47.141Z,97358.28
2023-05-17T08:12:13.640Z,97344.03
2023-05-17T08:14:40.436Z,97360.56
2023-05-17T08:17:06.935Z,97357.97
2023-05-17T08:19:33.671Z,97371.97
2023-05-17T08:22:00.294Z,97373.56
2023-05-17T08:24:26.804Z,97370.91
2023-05-17T08:26:53.381Z,97377.44
2023-05-17T08:29:19.972Z,97368.56
2023-05-17T08:31:46.583Z,97378.38
2023-05-17T08:34:13.238Z,97370.69
2023-05-17T08:36:39.901Z,97371.50
2023-05-17T08:39:08.293Z,97379.09
2023-05-17T08:41:37.331Z,97388.94
2023-05-17T08:44:06.487Z,97378.19
2023-05-17T08:46:35.048Z,97370.34
2023-05-17T08:49:05.136Z,97385.75
2023-05-17T08:51:32.787Z,97370.00
2023-05-17T08:54:00.499Z,97380.69
2023-05-17T08:56:29.123Z,97382.16
2023-05-17T08:58:57.858Z,97381.59
2023-05-17T09:01:26.866Z,97380.75
2023-05-17T09:03:54.441Z,97385.97
2023-05-17T09:06:22.263Z,97384.63
2023-05-17T09:08:52.894Z,97389.34
2023-05-17T09:11:28.166Z,97394.97
2023-05-17T09:13:58.999Z,97387.75
2023-05-17T09:16:26.512Z,97395.13
2023-05-17T09:18:59.957Z,97383.34
2023-05-17T09:21:27.566Z,97403.75
2023-05-17T09:24:05.613Z,97412.72
2023-05-17T09:26:44.988Z,97408.66
2023-05-17T09:29:13.183Z,97409.69
2023-05-17T09:31:40.886Z,97416.41
2023-05-17T09:34:08.544Z,97425.31
2023-05-17T09:36:37.510Z,97430.75
2023-05-17T09:39:06.205Z,97419.41
2023-05-17T09:41:40.702Z,97426.63
2023-05-17T09:44:11.716Z,97428.97
2023-05-17T09:46:41.956Z,97435.91
2023-05-17T09:49:09.450Z,97432.25
2023-05-17T09:51:37.555Z,97433.91
2023-05-17T09:54:06.736Z,97435.22
2023-05-17T09:56:35.015Z,97441.94
2023-05-17T09:59:02.660Z,97447.91
2023-05-17T10:01:31.892Z,97430.72
2023-05-17T10:04:02.792Z,97435.81
2023-05-17T10:06:44.567Z,97438.97
2023-05-17T10:09:17.041Z,97439.31
2023-05-17T10:11:46.887Z,97431.88
2023-05-17T10:14:19.155Z,97437.56
2023-05-17T10:16:45.984Z,97438.09
2023-05-17T10:19:14.177Z,97432.28
2023-05-17T10:21:43.283Z,97431.91
2023-05-17T10:24:12.007Z,97439.53
2023-05-17T10:26:39.387Z,97439.22
2023-05-17T10:29:07.138Z,97441.47
2023-05-17T10:31:34.744Z,97437.97
2023-05-17T10:36:29.838Z,97434.25
2023-05-17T10:38:56.919Z,97420.44
2023-05-17T10:41:26.439Z,97430.97
2023-05-17T10:43:54.481Z,97426.22
2023-05-17T10:46:23.491Z,97425.53
2023-05-17T10:48:54.241Z,97429.81
2023-05-17T10:51:27.093Z,97414.09
2023-05-17T10:54:02.675Z,97422.44
2023-05-17T10:56:33.594Z,97412.47
2023-05-17T10:59:28.025Z,97420.47
2023-05-17T11:02:07.407Z,97406.09
2023-05-17T11:04:38.247Z,97398.72
2023-05-17T11:07:17.306Z,97403.47
2023-05-17T11:09:45.348Z,97392.53
2023-05-17T11:12:13.380Z,97393.59
2023-05-17T11:14:46.072Z,97391.50
2023-05-17T11:17:18.289Z,97383.28
2023-05-17T11:20:01.955Z,97386.59
2023-05-17T11:22:36.974Z,97389.06
2023-05-17T11:25:08.544Z,97387.25
2023-05-17T11:27:49.847Z,97392.78
2023-05-17T11:30:18.282Z,97392.22
2023-05-17T11:32:58.142Z,97382.25
2023-05-17T11:35:27.425Z,97390.03
2023-05-17T11:38:12.136Z,97392.97
2023-05-17T11:40:39.977Z,97397.00
2023-05-17T11:43:11.732Z,97395.34
2023-05-17T11:45:57.606Z,97392.13
2023-05-17T11:48:26.809Z,97397.88
2023-05-17T11:50:56.381Z,97390.34
2023-05-17T11:53:24.798Z,97375.94
2023-05-17T11:55:52.592Z,97391.88
2023-05-17T11:58:26.647Z,97389.06
2023-05-17T12:00:58.454Z,97386.31
2023-05-17T12:03:28.896Z,97353.41
2023-05-17T12:06:02.039Z,97391.16
2023-05-17T12:08:32.134Z,97387.44
2023-05-17T12:10:58.829Z,97393.53
2023-05-17T12:13:29.237Z,97384.97
2023-05-17T12:16:02.181Z,97390.72
2023-05-17T12:18:39.846Z,97399.91
2023-05-17T12:21:08.841Z,97396.91
2023-05-17T12:23:41.204Z,97394.72
2023-05-17T12:26:10.914Z,97380.06
2023-05-17T12:28:39.833Z,97394.16
2023-05-17T12:31:14.897Z,97388.97
2023-05-17T12:33:43.169Z,97394.97
2023-05-17T12:36:12.104Z,97398.41
2023-05-17T12:38:42.116Z,97399.06
2023-05-17T12:41:13.963Z,97389.25
2023-05-17T12:43:41.305Z,97396.06
2023-05-17T12:46:20.473Z,97401.66
2023-05-17T12:48:48.062Z,97401.72
2023-05-17T12:51:22.101Z,97403.34
2023-05-17T12:53:54.629Z,97407.19
2023-05-17T12:56:23.417Z,97417.41
2023-05-17T12:59:14.785Z,97416.53
2023-05-17T13:01:45.750Z,97415.25
2023-05-17T13:04:13.549Z,97398.19
2023-05-17T13:06:48.321Z,97419.84
2023-05-17T13:09:18.401Z,97410.84
2023-05-17T13:11:52.241Z,97414.38
2023-05-17T13:14:38.670Z,97415.94
2023-05-17T13:17:07.139Z,97409.34
2023-05-17T13:19:35.814Z,97421.56
2023-05-17T13:22:03.932Z,97419.84
2023-05-17T13:24:35.298Z,97415.41
2023-05-17T13:27:02.487Z,97419.31
2023-05-17T13:29:38.954Z,97421.25
2023-05-17T13:32:09.117Z,97407.19
2023-05-17T13:34:36.073Z,97417.03
2023-05-17T13:37:02.649Z,97420.75
2023-05-17T13:39:29.321Z,97410.38
2023-05-17T13:41:55.815Z,97404.56
2023-05-17T13:44:22.574Z,97414.50
2023-05-17T13:46:49.077Z,97410.47
2023-05-17T13:49:15.693Z,97417.31
2023-05-17T13:51:42.952Z,97405.34
2023-05-17T13:54:10.845Z,97411.66
2023-05-17T13:56:37.682Z,97410.66
2023-05-17T13:59:04.282Z,97411.75
2023-05-17T14:01:30.994Z,97405.19
2023-05-17T14:03:57.610Z,97400.81
2023-05-17T14:06:24.833Z,97399.53
2023-05-17T14:08:53.199Z,97399.19
2023-05-17T14:11:21.579Z,97400.56
2023-05-17T14:13:48.102Z,97390.53
2023-05-17T14:16:14.874Z,97402.81
2023-05-17T14:18:41.624Z,97405.59
2023-05-17T14:21:08.656Z,97392.19
2023-05-17T14:23:37.534Z,97393.97
2023-05-17T14:26:07.614Z,97390.06
2023-05-17T14:28:37.908Z,97388.53
2023-05-17T14:31:09.424Z,97388.53
2023-05-17T14:33:36.735Z,97384.06
2023-05-17T14:36:04.123Z,97387.81
2023-05-17T14:38:31.372Z,97389.00
2023-05-17T14:40:59.048Z,97394.88
2023-05-17T14:43:26.697Z,97390.81
2023-05-17T14:45:53.202Z,97388.59
2023-05-17T14:48:20.381Z,97397.94
2023-05-17T14:50:46.970Z,97404.75
2023-05-17T14:53:14.490Z,97401.25
2023-05-17T14:55:41.805Z,97411.16
2023-05-17T14:58:08.295Z,97398.31
2023-05-17T15:00:34.930Z,97395.75
2023-05-17T15:03:01.754Z,97392.06
2023-05-17T15:05:29.002Z,97388.88
2023-05-17T15:07:55.727Z,97383.19
2023-05-17T15:10:22.944Z,97398.31
2023-05-17T15:12:49.851Z,97404.41
2023-05-17T15:15:16.635Z,97395.53
2023-05-17T15:17:43.182Z,97398.38
2023-05-17T15:20:10.745Z,97403.81
2023-05-17T15:22:37.617Z,97393.34
2023-05-17T15:25:06.130Z,97387.88
2023-05-17T15:27:32.759Z,97397.31
2023-05-17T15:29:59.285Z,97389.06
2023-05-17T15:32:26.649Z,97406.81
2023-05-17T15:34:53.190Z,97403.69
2023-05-17T15:37:19.724Z,97391.72
2023-05-17T15:39:47.698Z,97392.69
2023-05-17T15:42:14.222Z,97387.13
2023-05-17T15:44:40.712Z,97394.34
2023-05-17T15:47:07.230Z,97392.78
2023-05-17T15:49:34.147Z,97398.06
2023-05-17T15:52:00.762Z,97392.78
2023-05-17T15:54:27.388Z,97391.50
2023-05-17T15:56:53.955Z,97390.75
2023-05-17T15:59:20.633Z,97382.38
2023-05-17T16:01:47.139Z,97388.06
2023-05-17T16:04:13.822Z,97384.41
2023-05-17T16:06:41.225Z,97373.63
2023-05-17T16:09:07.938Z,97385.66
2023-05-17T16:11:34.598Z,97384.47
2023-05-17T16:14:01.191Z,97395.13
2023-05-17T16:16:27.739Z,97394.25
2023-05-17T16:18:54.357Z,97392.59
2023-05-17T16:21:21.066Z,97393.38
2023-05-17T16:23:47.675Z,97393.16
2023-05-17T16:26:14.619Z,97391.88
2023-05-17T16:28:41.287Z,97385.06
2023-05-17T16:31:09.356Z,97384.31
2023-05-17T16:33:38.270Z,97386.94
2023-05-17T16:36:08.806Z,97408.47
2023-05-17T16:38:39.448Z,97407.72
2023-05-17T16:41:06.104Z,97409.81
2023-05-17T16:43:32.717Z,97415.19
2023-05-17T16:45:59.334Z,97414.75
2023-05-17T16:48:26.019Z,97414.47
2023-05-17T16:50:52.586Z,97408.22
2023-05-17T16:53:19.203Z,97420.22
2023-05-17T16:55:45.816Z,97411.75
2023-05-17T16:58:13.075Z,97421.22
2023-05-17T17:00:39.636Z,97417.19
2023-05-17T17:03:09.219Z,97422.13
2023-05-17T17:05:36.597Z,97427.75
2023-05-17T17:08:03.302Z,97420.84
2023-05-17T17:10:30.053Z,97417.75
2023-05-17T17:12:57.209Z,97420.88
2023-05-17T17:15:23.807Z,97422.41
2023-05-17T17:17:50.464Z,97427.75
2023-05-17T17:20:17.738Z,97429.56
2023-05-17T17:22:44.349Z,97433.78
2023-05-17T17:25:11.178Z,97432.78
2023-05-17T17:27:37.864Z,97425.19
2023-05-17T17:30:05.204Z,97436.31
2023-05-17T17:32:32.044Z,97432.28
2023-05-17T17:34:58.786Z,97439.91
2023-05-17T17:37:25.351Z,97447.91
2023-05-17T17:39:51.938Z,97446.94
2023-05-17T17:42:19.425Z,97444.91
2023-05-17T17:44:46.969Z,97441.22
2023-05-17T17:47:14.064Z,97456.94
2023-05-17T17:49:52.964Z,97454.16
2023-05-17T17:52:19.444Z,97465.91
2023-05-17T17:54:46.273Z,97473.06
2023-05-17T17:57:12.947Z,97463.47
2023-05-17T17:59:39.470Z,97459.72
2023-05-17T18:02:05.970Z,97473.28
2023-05-17T18:04:32.530Z,97469.69
2023-05-17T18:07:05.262Z,97467.66
2023-05-17T18:09:31.822Z,97466.50
2023-05-17T18:11:59.614Z,97480.00
2023-05-17T18:14:26.530Z,97462.97
2023-05-17T18:16:53.135Z,97480.88
2023-05-17T18:19:19.861Z,97488.50
2023-05-17T18:21:46.566Z,97485.75
2023-05-17T18:24:13.158Z,97492.69
2023-05-17T18:26:39.644Z,97497.47
2023-05-17T18:29:06.241Z,97498.97
2023-05-17T18:31:32.780Z,97494.69
2023-05-17T18:33:59.293Z,97491.72
2023-05-17T18:36:25.849Z,97501.25
2023-05-17T18:38:52.498Z,97514.91
2023-05-17T18:41:19.016Z,97513.72
2023-05-17T18:43:45.714Z,97503.97
2023-05-17T18:46:13.106Z,97513.50
2023-05-17T18:48:40.820Z,97506.59
2023-05-17T18:51:07.514Z,97503.41
2023-05-17T18:53:35.991Z,97511.47
2023-05-17T18:56:02.705Z,97521.09
2023-05-17T18:58:29.907Z,97509.88
2023-05-17T19:00:56.577Z,97505.09
2023-05-17T19:03:23.158Z,97506.84
2023-05-17T19:05:49.683Z,97511.25
2023-05-17T19:08:16.298Z,97525.56
2023-05-17T19:10:42.818Z,97521.84
2023-05-17T19:13:09.746Z,97522.34
2023-05-17T19:15:36.317Z,97525.47
2023-05-17T19:18:02.911Z,97528.41
2023-05-17T19:20:29.766Z,97533.97
2023-05-17T19:22:56.486Z,97530.38
2023-05-17T19:25:23.097Z,97542.75
2023-05-17T19:27:49.964Z,97539.53
2023-05-17T19:30:16.515Z,97538.06
2023-05-17T19:32:43.171Z,97547.94
2023-05-17T19:35:10.853Z,97540.72
2023-05-17T19:37:37.479Z,97549.13
2023-05-17T19:40:07.089Z,97546.06
2023-05-17T19:42:33.739Z,97557.78
2023-05-17T19:45:00.342Z,97556.97
2023-05-17T19:47:27.020Z,97560.78
2023-05-17T19:49:53.560Z,97564.00
2023-05-17T19:52:20.038Z,97563.50
2023-05-17T19:54:46.655Z,97561.69
2023-05-17T19:57:13.138Z,97561.91
2023-05-17T19:59:39.998Z,97562.72
2023-05-17T20:02:06.809Z,97568.81
2023-05-17T20:04:33.462Z,97569.28
2023-05-17T20:06:59.966Z,97567.09
2023-05-17T20:09:30.193Z,97569.47
2023-05-17T20:11:57.545Z,97567.09
2023-05-17T20:14:24.311Z,97564.81
2023-05-17T20:16:51.102Z,97573.50
2023-05-17T20:19:17.761Z,97575.53
2023-05-17T20:21:44.602Z,97579.03
2023-05-17T20:24:11.248Z,97576.34
2023-05-17T20:26:37.929Z,97566.94
2023-05-17T20:29:07.160Z,97571.78
2023-05-17T20:31:35.063Z,97577.00
2023-05-17T20:34:03.479Z,97580.78
2023-05-17T20:36:30.196Z,97577.75
2023-05-17T20:38:57.797Z,97586.50
2023-05-17T20:41:24.380Z,97593.75
2023-05-17T20:43:51.720Z,97589.34
2023-05-17T20:46:18.438Z,97599.34
2023-05-17T20:48:47.668Z,97602.38
2023-05-17T20:51:17.657Z,97600.38
2023-05-17T20:53:44.848Z,97594.53
2023-05-17T20:56:11.345Z,97595.09
2023-05-17T20:58:37.978Z,97600.91
2023-05-17T21:01:05.788Z,97595.53
2023-05-17T21:03:34.114Z,97599.13
2023-05-17T21:06:01.713Z,97609.19
2023-05-17T21:08:28.485Z,97595.28
2023-05-17T21:10:55.717Z,97592.13
2023-05-17T21:13:23.915Z,97597.75
2023-05-17T21:15:50.460Z,97591.03
2023-05-17T21:18:16.969Z,97600.50
2023-05-17T21:20:43.589Z,97604.09
2023-05-17T21:23:10.088Z,97590.44
2023-05-17T21:25:38.655Z,97586.88
2023-05-17T21:28:05.874Z,97597.31
2023-05-17T21:30:33.508Z,97589.06
2023-05-17T21:33:00.210Z,97588.25
2023-05-17T21:35:26.900Z,97591.28
2023-05-17T21:37:53.468Z,97587.97
2023-05-17T21:40:20.049Z,97593.63
2023-05-17T21:42:47.863Z,97590.19
2023-05-17T21:45:16.603Z,97583.00
2023-05-17T21:47:43.122Z,97596.78
2023-05-17T21:50:11.288Z,97591.53
2023-05-17T21:52:37.849Z,97591.53
2023-05-17T21:55:05.075Z,97597.03
2023-05-17T21:57:35.934Z,97599.63
2023-05-17T22:00:04.674Z,97598.41
2023-05-17T22:02:31.279Z,97600.56
2023-05-17T22:04:57.849Z,97592.59
2023-05-17T22:07:24.487Z,97597.28
2023-05-17T22:09:51.260Z,97584.50
2023-05-17T22:12:25.105Z,97592.84
2023-05-17T22:14:58.639Z,97597.28
2023-05-17T22:17:39.344Z,97593.31
2023-05-17T22:20:14.013Z,97589.44
2023-05-17T22:22:40.569Z,97590.38
2023-05-17T22:25:07.759Z,97584.84
2023-05-17T22:27:34.364Z,97589.75
2023-05-17T22:30:01.174Z,97591.28
2023-05-17T22:32:27.997Z,97581.66
2023-05-17T22:34:56.166Z,97589.50
2023-05-17T22:37:23.635Z,97585.63
2023-05-17T22:39:50.414Z,97587.19
2023-05-17T22:42:17.101Z,97597.28
2023-05-17T22:44:43.596Z,97603.09
2023-05-17T22:47:14.853Z,97594.53
2023-05-17T22:49:42.160Z,97591.19
2023-05-17T22:52:10.987Z,97590.69
2023-05-17T22:54:38.400Z,97595.06
2023-05-17T22:57:05.556Z,97598.94
2023-05-17T22:59:33.180Z,97594.81
2023-05-17T23:02:02.325Z,97591.19
2023-05-17T23:04:30.164Z,97588.59
2023-05-17T23:07:04.102Z,97595.19
2023-05-17T23:09:31.271Z,97596.13
2023-05-17T23:12:00.361Z,97579.00
2023-05-17T23:14:27.117Z,97584.78
2023-05-17T23:16:53.749Z,97579.81
2023-05-17T23:19:21.154Z,97590.31
2023-05-17T23:21:49.005Z,97595.19
2023-05-17T23:24:15.591Z,97596.44
2023-05-17T23:26:42.114Z,97585.69
2023-05-17T23:29:10.629Z,97595.75
2023-05-17T23:31:37.706Z,97575.19
2023-05-17T23:34:04.484Z,97589.25
2023-05-17T23:36:30.985Z,97590.91
2023-05-17T23:38:57.453Z,97580.16
2023-05-17T23:41:25.408Z,97585.25
2023-05-17T23:43:56.896Z,97584.00
2023-05-17T23:46:24.721Z,97587.31
2023-05-17T23:48:51.353Z,97585.25
2023-05-17T23:51:20.927Z,97579.59
2023-05-17T23:53:50.614Z,97580.94
2023-05-17T23:56:18.197Z,97582.78
2023-05-17T23:58:47.798Z,97585.94
